Nearby METAR Reports

 

KIAG - Niagara Falls, New York, USA
Distance from station: W 13mi, 20km
Updated: Fri, 07-May-2021 11:00am EDT
Light rain, Mist, Overcast
Light rain, Mist, Overcast
 Wind from NNE
Wind: NNE 12 mph , 19 km/h
Temperature: 41°F , 5°C
Wind Chill: 34°F , 1°C
Dew Point: 39°F , 4°C
Humidity: 93%
Barometer: 29.97 inHg , 1014.9 hPa
Summary: Light rain, Mist
Clouds: Overcast
Visibility: 4 miles , 6 km
Cloud details: Few Clouds 800 ft
Mostly cloudy 1300 ft
Overcast 2100 ft
2021/05/07 15:00 KIAG 071500Z 03010KT 4SM -RA BR FEW008 BKN013 OVC021 05/04 A2997 RMK AO2 P0000 T00500039
KBUF - Buffalo/Cheektow, New York, USA
Distance from station: S 15mi, 24km
Updated: Fri, 07-May-2021 10:54am EDT
Light rain, Overcast
Light rain, Overcast
 Wind from NE
Wind: NE 6 mph , 9 km/h
Temperature: 45°F , 7°C
Wind Chill: 42°F , 6°C
Dew Point: 37°F , 3°C
Humidity: 76%
Barometer: 29.96 inHg , 1014.6 hPa
Summary: Light rain
Clouds: Overcast
Visibility: 7 miles , 11 km
Cloud details: Partly cloudy 800 ft
Mostly cloudy 1400 ft
Overcast 2900 ft
2021/05/07 14:54 KBUF 071454Z 05005KT 7SM -RA SCT008 BKN014 OVC029 07/03 A2996 RMK AO2 SLP148 P0001 6//// T00670033 $
 
CYSN - St. Catharines A, Ontario, Canada
Distance from station: W 24mi, 39km
Updated: Fri, 07-May-2021 11:00am EDT
Light rain, Mist, Overcast
Light rain, Mist, Overcast
 Wind from NE
Wind: NE 12 mph , 19 km/h
Temperature: 43°F , 6°C
Wind Chill: 37°F , 3°C
Dew Point: 39°F , 4°C
Humidity: 87%
Barometer: 29.97 inHg , 1014.9 hPa
Summary: Light rain, Mist
Clouds: Overcast
Visibility: 6 miles , 10 km
Cloud details: Mostly cloudy 1700 ft
Overcast 2300 ft
2021/05/07 15:00 CYSN 071500Z 05010KT 6SM -RA BR BKN017 OVC023 06/04 A2997 RMK SF5NS3 SLP153
CWWZ - Port Weller (mar, Ontario, Canada
Distance from station: WNW 28mi, 44km
Updated: Fri, 07-May-2021 11:00am EDT

 Wind from ENE
Wind: ENE 15 mph , 24 km/h
Temperature: 43°F , 6°C
Wind Chill: 36°F , 2°C
Dew Point: 39°F , 4°C
Humidity: 87%
2021/05/07 15:00 CWWZ 071500Z AUTO 07013KT 06/04 RMK AO1 3PAST HR 8003 SLP157 P0001 T00630037 50008
 
CWPC - Port Colborne(Au, Ontario, Canada
Distance from station: SW 35mi, 56km
Updated: Fri, 07-May-2021 11:00am EDT

 Wind from NE
Wind: NE 12 mph , 19 km/h
Temperature: 41°F , 5°C
Wind Chill: 34°F , 1°C
Dew Point: 37°F , 3°C
Humidity: 87%
2021/05/07 15:00 CWPC 071500Z AUTO 05010KT 05/03 RMK AO1 SLP154 T00510029 58003
CXVN - Vineland (au8), Ontario, Canada
Distance from station: W 36mi, 58km
Updated: Fri, 07-May-2021 11:00am EDT

 Wind from E
Wind: E 8 mph , 13 km/h
Temperature: 43°F , 6°C
Wind Chill: 38°F , 3°C
Dew Point: 36°F , 2°C
Humidity: 76%
2021/05/07 15:00 CXVN 071500Z AUTO 08007KT 06/02 RMK AO1 1PAST HR 7002 SLP151 P0000 T00610024 50009
 
CYTZ - Toronto Il Vor, Ontario, Canada
Distance from station: NW 49mi, 79km
Updated: Fri, 07-May-2021 11:00am EDT
Mostly cloudy
Mostly cloudy
 Wind from SSE
Wind: SSE 5 mph , 7 km/h
Temperature: 45°F , 7°C
Wind Chill: 42°F , 6°C
Dew Point: 36°F , 2°C
Humidity: 71%
Barometer: 29.98 inHg , 1015.2 hPa
Clouds: Mostly cloudy
Visibility: 9 miles , 14 km
Cloud details: Few Clouds 3600 ft
Mostly cloudy 6600 ft
2021/05/07 15:00 CYTZ 071500Z AUTO 16004KT 140V220 9SM FEW036 BKN066 07/02 A2998 RMK SLP155
KROC - Rochester, New York, USA
Distance from station: E 51mi, 81km
Updated: Fri, 07-May-2021 10:54am EDT
Overcast
Overcast
 Wind from N
Wind: N 8 mph , 13 km/h
Temperature: 46°F , 8°C
Wind Chill: 42°F , 6°C
Dew Point: 39°F , 4°C
Humidity: 76%
Barometer: 29.96 inHg , 1014.6 hPa
Clouds: Overcast
Visibility: 10 miles , 16 km
Cloud details: Partly cloudy 6500 ft
Mostly cloudy 9000 ft
Overcast 15000 ft
2021/05/07 14:54 KROC 071454Z 36007KT 10SM SCT065 BKN090 OVC150 08/04 A2996 RMK AO2 SLP153 60000 T00830039 58001 $
 
CXTO - Toronto City, Ontario, Canada
Distance from station: NW 51mi, 82km
Updated: Fri, 07-May-2021 11:00am EDT

 
Temperature: 46°F , 8°C
Dew Point: 36°F , 2°C
Humidity: 66%
2021/05/07 15:00 CXTO 071500Z AUTO 08/02 RMK AO1 1PAST HR 8002 SLP152 P0000 T00760020 50001
CYOO - Oshawa, Ontario, Canada
Distance from station: NNW 54mi, 87km
Updated: Fri, 07-May-2021 11:00am EDT
Overcast
Overcast
 Wind from S
Wind: S 7 mph , 11 km/h
Temperature: 46°F , 8°C
Wind Chill: 42°F , 6°C
Dew Point: 36°F , 2°C
Humidity: 66%
Barometer: 29.97 inHg , 1014.9 hPa
Clouds: Overcast
Visibility: 9 miles , 14 km
Cloud details: Mostly cloudy 4200 ft
Overcast 7100 ft
2021/05/07 15:00 CYOO 071500Z AUTO 17006KT 150V210 9SM BKN042 OVC071 08/02 A2997 RMK SLP153
 
KDKK - Dunkirk, New York, USA
Distance from station: SW 54mi, 87km
Updated: Fri, 07-May-2021 11:37am EDT
Light rain, Overcast
Light rain, Overcast
 Wind from ENE
Wind: ENE 8 mph , 13 km/h
Temperature: 45°F , 7°C
Wind Chill: 41°F , 5°C
Dew Point: 39°F , 4°C
Humidity: 81%
Barometer: 29.94 inHg , 1013.9 hPa
Summary: Light rain
Clouds: Overcast
Visibility: 9 miles , 14 km
Cloud details: Few Clouds 1100 ft
Partly cloudy 1600 ft
Overcast 3200 ft
2021/05/07 15:37 KDKK 071537Z AUTO 07007KT 9SM -RA FEW011 SCT016 OVC032 07/04 A2994 RMK AO2 P0001 T00670044
CWWB - Burlington Piers, Ontario, Canada
Distance from station: W 56mi, 91km
Updated: Fri, 07-May-2021 11:00am EDT

 Wind from ENE
Wind: ENE 3 mph , 6 km/h
Temperature: 43°F , 6°C
Dew Point: 37°F , 3°C
Humidity: 81%
2021/05/07 15:00 CWWB 071500Z AUTO 07003KT 06/03 RMK AO1 SLP155 T00590028 51001
 
CYYZ - Toronto/Pearson, Ontario, Canada
Distance from station: NW 59mi, 95km
Updated: Fri, 07-May-2021 11:00am EDT
Overcast
Overcast
 Wind from NE
Wind: NE 7 mph , 11 km/h
Temperature: 46°F , 8°C
Wind Chill: 42°F , 6°C
Dew Point: 34°F , 1°C
Humidity: 62%
Barometer: 29.97 inHg , 1014.9 hPa
Clouds: Overcast
Visibility: 15 miles , 24 km
Cloud details: Partly cloudy 3500 ft
Overcast 7000 ft
2021/05/07 15:00 CYYZ 071500Z 04006KT 15SM SCT035 OVC070 08/01 A2997 RMK SC3AC5 SLP152
CWNC - Cobourg (mars), Ontario, Canada
Distance from station: NNE 61mi, 98km
Updated: Fri, 07-May-2021 11:00am EDT

 Wind from SW
Wind: SW 7 mph , 11 km/h
Temperature: 46°F , 8°C
Wind Chill: 42°F , 6°C
Dew Point: 39°F , 4°C
Humidity: 76%
2021/05/07 15:00 CWNC 071500Z AUTO 22006KT 08/04 RMK AO1 SLP151 T00760035 51001
 
CXHM - Hamilton Rbg Cs, Ontario, Canada
Distance from station: W 62mi, 100km
Updated: Fri, 07-May-2021 11:00am EDT

 Wind from E
Wind: E 5 mph , 7 km/h
Temperature: 45°F , 7°C
Wind Chill: 42°F , 6°C
Dew Point: 36°F , 2°C
Humidity: 71%
2021/05/07 15:00 CXHM 071500Z AUTO 10004KT 07/02 RMK AO1 SLP155 T00700018 50001
CYHM - Hamilton Airport, Ontario, Canada
Distance from station: W 63mi, 101km
Updated: Fri, 07-May-2021 11:42am EDT
Overcast
Overcast
 Wind from ENE
Wind: ENE 7 mph , 11 km/h
Temperature: 43°F , 6°C
Wind Chill: 39°F , 4°C
Dew Point: 34°F , 1°C
Humidity: 71%
Barometer: 29.96 inHg , 1014.6 hPa
Clouds: Overcast
Visibility: 15 miles , 24 km
Cloud details: Few Clouds 2100 ft
Overcast 4500 ft
2021/05/07 15:42 CYHM 071542Z 07006KT 15SM FEW021 OVC045 06/01 A2996 RMK CU1SC7 SLP154
 
KDSV - Dansville, New York, USA
Distance from station: SE 63mi, 102km
Updated: Fri, 07-May-2021 10:54am EDT
Overcast
Overcast
 Wind from NW
Wind: NW 9 mph , 15 km/h
Temperature: 50°F , 10°C
Wind Chill: 46°F , 8°C
Dew Point: 39°F , 4°C
Humidity: 67%
Barometer: 29.93 inHg , 1013.5 hPa
Clouds: Overcast
Visibility: 10 miles , 16 km
Cloud details: Overcast 5500 ft
2021/05/07 14:54 KDSV 071454Z AUTO 32008KT 10SM OVC055 10/04 A2993 RMK AO2 SLP147 T01000039 58011
KOLE - Olean, New York, USA
Distance from station: SSE 65mi, 105km
Updated: Fri, 07-May-2021 11:35am EDT
Overcast
Overcast
 Wind from NE
Wind: NE 6 mph , 9 km/h
Temperature: 41°F , 5°C
Wind Chill: 37°F , 3°C
Dew Point: 34°F , 1°C
Humidity: 76%
Barometer: 29.88 inHg , 1011.9 hPa
Clouds: Overcast
Visibility: 10 miles , 16 km
Cloud details: Partly cloudy 1800 ft
Partly cloudy 3400 ft
Overcast 5000 ft
2021/05/07 15:35 KOLE 071535Z AUTO 05005KT 10SM SCT018 SCT034 OVC050 05/01 A2988 RMK AO2